Airfield :
LOGIN :

Register | Disclaimer

   EN    FR    IT 

 










Legend :    VFR   Marginal VFR   IFR   Intensive IFR   Very Intensive IFR
Visi :
Ceiling :
>= 8 km
>= 3000ft
5 to 8 km
1000 to 3000 ft
1500m to 5 km
500 to 1000 ft
800 to 1500m
200 to 500 ft
< 800m
< 200 ft
Symbols :   Thunderstorms  Fog  Heavy snow  Heavy precipitations  Wind > 20 kt
SIGMETs :     Misc.  Thunderstorms  Icing  Turbulence  Mountain Waves  Volcanic Ashes






- Airport Elevation : 2026 ft
- IATA code : TOJ


LETO - Madrid Torrejon

CURRENT METAR :
  • 300500Z 02003KT 360V070 CAVOK 07/03 Q1022 NOSIG

EXPIRED METARs :
  • 300430Z 03005KT 010V080 CAVOK 08/03 Q1022 NOSIG
  • 300400Z 03004KT CAVOK 09/02 Q1022 NOSIG
  • 300330Z VRB01KT CAVOK 10/03 Q1022 NOSIG
  • 300300Z 04001KT CAVOK 10/03 Q1022 NOSIG
  • 300230Z 01003KT 310V040 CAVOK 10/02 Q1022 NOSIG

TAF TAF LETO
Valid from the 30 at 00:00 until the 31 at 00:00 UTC


292300Z 3000/3024 VRB04KT CAVOK TX24/3015Z TN08/3006Z
BECMG 3008/3010 23012KT
TEMPO 3011/3020 23016G26KT



MET'MAP, your aeronautical weather chart ! - Copyright ORBIFLY December 2007 - Disclaimer

ORBIFLY MET'MAP TEAM :

Programming & Development : Alexandra Zaïnal
Original concept : Baudouin d'Aumeries
Technical & hardware support : Manuel Goepfert
Assistance : Marc-Olivier Méhu




SOURCES & CREDITS :

   NOAA